Time;durP1;ratioP1;P1;durP2;ratioP2;P2;SDS_P1;SDS_P2;PMS_P1;PMS_P2;Temp;Humidity;BMP_temperature;BMP_pressure;BME280_temperature;BME280_humidity;BME280_pressure;Samples;Min_cycle;Max_cycle;Signal;HPM_P1;HPM_P2
2023/05/10 00:02:07;;;;;;;21.27;14.90;;;14.70;1.00;;;;;;5083004;28;21508;-83
2023/05/10 00:04:33;;;;;;;20.37;14.60;;;14.70;1.00;;;;;;5080843;28;20188;-84
2023/05/10 00:06:59;;;;;;;24.40;14.83;;;14.70;1.00;;;;;;5093304;28;20190;-83
2023/05/10 00:09:24;;;;;;;21.47;15.27;;;14.70;1.00;;;;;;5091119;28;20201;-83
2023/05/10 00:11:50;;;;;;;21.90;15.53;;;14.70;1.00;;;;;;5092348;28;20212;-84
2023/05/10 00:14:15;;;;;;;22.73;15.33;;;14.70;1.00;;;;;;5088645;28;20191;-84
2023/05/10 00:16:41;;;;;;;23.10;15.13;;;14.70;1.00;;;;;;5092126;28;20195;-83
2023/05/10 00:19:07;;;;;;;23.50;15.13;;;14.60;1.00;;;;;;5096743;28;20189;-83
2023/05/10 00:21:33;;;;;;;21.50;15.13;;;14.60;1.00;;;;;;5079923;28;20189;-84
2023/05/10 00:23:59;;;;;;;24.57;15.27;;;14.60;1.00;;;;;;5105230;28;20223;-83
2023/05/10 00:26:24;;;;;;;23.60;15.87;;;14.60;1.00;;;;;;5105985;28;20467;-84
2023/05/10 00:28:50;;;;;;;22.23;15.67;;;14.60;1.00;;;;;;5089474;28;20218;-85
2023/05/10 00:31:15;;;;;;;20.70;14.83;;;14.70;1.00;;;;;;5098946;28;20195;-83
2023/05/10 00:33:41;;;;;;;21.67;15.53;;;14.70;1.00;;;;;;5100780;28;20296;-85
2023/05/10 00:36:07;;;;;;;21.67;16.23;;;14.70;1.00;;;;;;5093377;28;20196;-83
2023/05/10 00:38:33;;;;;;;20.60;15.03;;;14.70;1.00;;;;;;5078962;28;20360;-84
2023/05/10 00:40:59;;;;;;;22.33;16.90;;;14.70;1.00;;;;;;5074107;28;20493;-84
2023/05/10 00:43:24;;;;;;;22.90;15.67;;;14.70;1.00;;;;;;5089210;28;20466;-83
2023/05/10 00:45:50;;;;;;;24.60;16.00;;;14.70;1.00;;;;;;5089013;28;20667;-84
2023/05/10 00:48:16;;;;;;;22.67;15.80;;;14.70;1.00;;;;;;5086965;28;20216;-85
2023/05/10 00:50:41;;;;;;;21.60;14.53;;;14.70;1.00;;;;;;5091594;28;20191;-83
2023/05/10 00:53:08;;;;;;;22.43;14.47;;;14.70;1.00;;;;;;5090567;28;20710;-83
2023/05/10 00:55:34;;;;;;;25.90;17.17;;;14.70;1.00;;;;;;5079137;28;20434;-84
2023/05/10 00:58:00;;;;;;;22.90;15.17;;;14.70;1.00;;;;;;5083500;28;20472;-84
2023/05/10 01:00:25;;;;;;;25.13;15.23;;;14.70;1.00;;;;;;5080767;28;20431;-83
2023/05/10 01:02:53;;;;;;;23.93;16.17;;;14.70;1.00;;;;;;5084543;28;20203;-82
2023/05/10 01:05:18;;;;;;;24.10;14.77;;;14.70;1.00;;;;;;5082479;28;20179;-84
2023/05/10 01:07:44;;;;;;;23.00;13.97;;;14.70;1.00;;;;;;5070864;28;20436;-84
2023/05/10 01:10:10;;;;;;;20.47;15.03;;;14.70;1.00;;;;;;5089219;28;20199;-82
2023/05/10 01:12:38;;;;;;;22.97;14.40;;;14.70;1.00;;;;;;5063474;28;20232;-82
2023/05/10 01:15:06;;;;;;;22.47;13.93;;;14.70;1.00;;;;;;5084089;28;20456;-84
2023/05/10 01:17:33;;;;;;;22.37;14.93;;;14.70;1.00;;;;;;5080146;28;20504;-83
2023/05/10 01:19:58;;;;;;;30.67;16.40;;;14.70;1.00;;;;;;5082766;28;20511;-82
2023/05/10 01:22:32;;;;;;;24.23;15.37;;;14.70;1.00;;;;;;5089808;28;20448;-83
2023/05/10 01:25:21;;;;;;;27.40;15.20;;;14.70;1.00;;;;;;5091513;28;20850;-82
2023/05/10 01:28:06;;;;;;;27.73;15.77;;;14.70;1.00;;;;;;5078127;28;20442;-84
2023/05/10 01:30:52;;;;;;;20.00;14.00;;;14.70;1.00;;;;;;5072151;28;20525;-84
2023/05/10 01:33:35;;;;;;;23.47;15.83;;;14.70;1.00;;;;;;5071626;28;20476;-84
2023/05/10 01:36:06;;;;;;;25.20;14.50;;;14.60;1.00;;;;;;5078303;28;20471;-85
2023/05/10 01:38:40;;;;;;;27.97;15.60;;;14.60;1.00;;;;;;5091786;28;20517;-83
2023/05/10 01:41:16;;;;;;;20.07;14.10;;;14.60;1.00;;;;;;5084409;28;20537;-84
2023/05/10 01:44:23;;;;;;;22.37;14.50;;;14.60;1.00;;;;;;5091109;28;20518;-83
2023/05/10 01:46:53;;;;;;;25.03;15.80;;;14.60;1.00;;;;;;5069783;28;20445;-83
2023/05/10 01:49:26;;;;;;;20.30;13.70;;;14.60;1.00;;;;;;5075702;28;20448;-83
2023/05/10 01:51:56;;;;;;;22.13;13.40;;;14.50;1.00;;;;;;5085695;28;20907;-83
2023/05/10 01:54:23;;;;;;;18.87;13.13;;;14.50;1.00;;;;;;5091002;28;20436;-84
2023/05/10 01:56:55;;;;;;;16.10;11.97;;;14.50;1.00;;;;;;5091062;28;20431;-83
2023/05/10 01:59:23;;;;;;;18.57;11.27;;;14.50;1.00;;;;;;5077013;28;20417;-84
2023/05/10 02:01:50;;;;;;;18.87;11.60;;;14.50;1.00;;;;;;5076827;28;20455;-83
2023/05/10 02:04:19;;;;;;;19.23;12.40;;;14.50;1.00;;;;;;5081158;28;20435;-85
2023/05/10 02:06:46;;;;;;;17.63;12.90;;;14.50;1.00;;;;;;5090267;28;20497;-83
2023/05/10 02:09:13;;;;;;;17.37;12.17;;;14.50;1.00;;;;;;5092630;28;20443;-83
2023/05/10 02:11:42;;;;;;;18.33;12.27;;;14.50;1.00;;;;;;5084694;28;20427;-84
2023/05/10 02:14:10;;;;;;;20.37;14.10;;;14.50;1.00;;;;;;5092532;28;20436;-83
2023/05/10 02:16:37;;;;;;;18.93;12.50;;;14.50;1.00;;;;;;5086338;28;20438;-84
2023/05/10 02:19:04;;;;;;;19.07;12.90;;;14.50;1.00;;;;;;5087138;28;20438;-84
2023/05/10 02:21:31;;;;;;;21.40;14.23;;;14.50;1.00;;;;;;5074050;28;20473;-83
2023/05/10 02:23:58;;;;;;;19.37;13.67;;;14.40;1.00;;;;;;5089225;28;20476;-83
2023/05/10 02:26:25;;;;;;;19.80;13.57;;;14.40;1.00;;;;;;5088991;28;20467;-84
2023/05/10 02:28:53;;;;;;;24.83;14.10;;;14.40;1.00;;;;;;5091227;28;20528;-84
2023/05/10 02:31:19;;;;;;;21.07;13.80;;;14.40;1.00;;;;;;5093748;28;20476;-84
2023/05/10 02:33:46;;;;;;;17.20;12.43;;;14.50;1.00;;;;;;5089714;28;20536;-83
2023/05/10 02:36:13;;;;;;;19.77;12.83;;;14.50;1.00;;;;;;5087061;28;20442;-83
2023/05/10 02:38:40;;;;;;;19.00;13.13;;;14.50;1.00;;;;;;5070139;28;20463;-83
2023/05/10 02:41:08;;;;;;;17.40;12.83;;;14.50;1.00;;;;;;5078569;28;21123;-84
2023/05/10 02:43:35;;;;;;;19.10;13.07;;;14.40;1.00;;;;;;5090516;28;20461;-83
2023/05/10 02:46:01;;;;;;;22.40;14.40;;;14.50;1.00;;;;;;5080779;28;20931;-81
2023/05/10 02:48:26;;;;;;;20.30;15.00;;;14.40;1.00;;;;;;5087728;28;20456;-83
2023/05/10 02:50:55;;;;;;;21.33;14.40;;;14.40;1.00;;;;;;5097179;28;20447;-85
2023/05/10 02:53:28;;;;;;;24.27;15.30;;;14.40;1.00;;;;;;5104804;28;20207;-83
2023/05/10 02:55:56;;;;;;;25.03;15.90;;;14.40;1.00;;;;;;5088372;28;21133;-83
2023/05/10 02:58:22;;;;;;;24.57;15.20;;;14.40;1.00;;;;;;5083816;28;20513;-81
2023/05/10 03:00:47;;;;;;;26.50;16.87;;;14.40;1.00;;;;;;5096526;28;20444;-83
2023/05/10 03:03:13;;;;;;;26.10;17.57;;;14.40;1.00;;;;;;5085272;28;20367;-84
2023/05/10 03:05:38;;;;;;;26.67;17.77;;;14.40;1.00;;;;;;5087611;28;20195;-83
2023/05/10 03:08:05;;;;;;;29.83;18.30;;;14.40;1.00;;;;;;5084828;28;20244;-83
2023/05/10 03:10:33;;;;;;;27.87;18.87;;;14.40;1.00;;;;;;5088119;28;20194;-82
2023/05/10 03:13:18;;;;;;;34.90;18.97;;;14.40;1.00;;;;;;5091331;28;20460;-83
2023/05/10 03:16:07;;;;;;;28.40;18.07;;;14.40;1.00;;;;;;5102609;28;20431;-81
2023/05/10 03:18:45;;;;;;;26.27;18.77;;;14.40;1.00;;;;;;5088461;28;20507;-82
2023/05/10 03:21:12;;;;;;;30.63;18.43;;;14.40;1.00;;;;;;5067979;28;20441;-84
2023/05/10 03:23:45;;;;;;;25.00;17.43;;;14.40;1.00;;;;;;5090853;28;20509;-81
2023/05/10 03:26:17;;;;;;;29.30;18.57;;;14.40;1.00;;;;;;5079002;28;20429;-84
2023/05/10 03:28:43;;;;;;;28.13;17.40;;;14.40;1.00;;;;;;5088952;28;20446;-83
2023/05/10 03:31:09;;;;;;;20.77;15.90;;;14.40;1.00;;;;;;5090157;28;20468;-82
2023/05/10 03:33:35;;;;;;;24.90;14.23;;;14.40;1.00;;;;;;5095973;28;20555;-83
2023/05/10 03:36:00;;;;;;;19.77;15.13;;;14.30;1.00;;;;;;5093929;28;20182;-84
2023/05/10 03:38:26;;;;;;;25.67;15.67;;;14.30;1.00;;;;;;5072194;28;20577;-84
2023/05/10 03:40:51;;;;;;;14.90;13.10;;;14.30;1.00;;;;;;5080878;28;20191;-84
2023/05/10 03:43:17;;;;;;;24.50;13.07;;;14.30;1.00;;;;;;5079228;28;20241;-84
2023/05/10 03:45:42;;;;;;;18.73;13.77;;;14.30;1.00;;;;;;5087556;28;20606;-83
2023/05/10 03:48:08;;;;;;;30.40;14.20;;;14.30;1.00;;;;;;5085232;28;20202;-83
2023/05/10 03:50:33;;;;;;;21.80;13.40;;;14.30;1.00;;;;;;5099739;28;20202;-83
2023/05/10 03:52:59;;;;;;;18.87;13.50;;;14.30;1.00;;;;;;5080120;28;20236;-83
2023/05/10 03:55:24;;;;;;;20.07;12.23;;;14.30;1.00;;;;;;5080130;28;20190;-83
2023/05/10 03:57:50;;;;;;;21.40;13.90;;;14.20;1.00;;;;;;5087442;28;20239;-84
2023/05/10 04:00:15;;;;;;;17.80;12.57;;;14.20;1.00;;;;;;5100193;28;20181;-84
2023/05/10 04:02:41;;;;;;;21.43;13.23;;;14.20;1.00;;;;;;5079029;28;20196;-83
2023/05/10 04:05:07;;;;;;;15.57;12.53;;;14.20;1.00;;;;;;5097570;28;20259;-84
2023/05/10 04:07:32;;;;;;;22.40;12.50;;;14.20;1.00;;;;;;5083985;28;20188;-84
2023/05/10 04:09:58;;;;;;;19.20;13.83;;;14.20;1.00;;;;;;5094762;28;20429;-84
2023/05/10 04:12:24;;;;;;;15.77;11.90;;;14.20;1.00;;;;;;5080045;28;20203;-84
2023/05/10 04:14:49;;;;;;;16.73;11.60;;;14.20;1.00;;;;;;5085135;28;20212;-85
2023/05/10 04:17:15;;;;;;;20.73;13.30;;;14.20;1.00;;;;;;5093027;28;20214;-84
2023/05/10 04:19:40;;;;;;;15.27;11.47;;;14.20;1.00;;;;;;5100212;28;20188;-84
2023/05/10 04:22:06;;;;;;;18.43;12.27;;;14.20;1.00;;;;;;5080316;28;20242;-83
2023/05/10 04:24:31;;;;;;;16.17;11.40;;;14.20;1.00;;;;;;5080379;28;20183;-83
2023/05/10 04:26:57;;;;;;;20.13;12.40;;;14.20;1.00;;;;;;5078325;28;20206;-84
2023/05/10 04:29:22;;;;;;;20.10;13.27;;;14.20;1.00;;;;;;5069591;28;20285;-83
2023/05/10 04:31:48;;;;;;;20.93;13.20;;;14.20;1.00;;;;;;5085574;28;20178;-83
2023/05/10 04:34:14;;;;;;;19.57;12.60;;;14.20;1.00;;;;;;5084403;28;20230;-85
2023/05/10 04:36:39;;;;;;;18.17;13.10;;;14.20;1.00;;;;;;5079308;28;20436;-85
2023/05/10 04:39:05;;;;;;;18.90;13.37;;;14.20;1.00;;;;;;5093709;28;20194;-84
2023/05/10 04:41:30;;;;;;;25.87;14.47;;;14.20;1.00;;;;;;5081452;28;20176;-82
2023/05/10 04:43:56;;;;;;;19.30;13.30;;;14.20;1.00;;;;;;5073043;28;20246;-85
2023/05/10 04:46:21;;;;;;;22.00;15.07;;;14.20;1.00;;;;;;5076273;28;20237;-83
2023/05/10 04:48:47;;;;;;;26.87;15.23;;;14.20;1.00;;;;;;5083291;28;20186;-84
2023/05/10 04:51:13;;;;;;;23.17;13.13;;;14.20;1.00;;;;;;5089483;28;20191;-83
2023/05/10 04:53:39;;;;;;;20.77;13.63;;;14.20;1.00;;;;;;5087589;28;20219;-84
2023/05/10 04:56:05;;;;;;;26.00;15.47;;;14.30;1.00;;;;;;5079616;28;20187;-84
2023/05/10 04:58:30;;;;;;;21.20;13.70;;;14.20;1.00;;;;;;5080887;28;20205;-82
2023/05/10 05:00:56;;;;;;;26.10;14.00;;;14.20;1.00;;;;;;5093217;28;20435;-83
2023/05/10 05:03:22;;;;;;;24.03;15.87;;;14.20;1.00;;;;;;5087344;28;20216;-83
2023/05/10 05:05:47;;;;;;;25.47;14.83;;;14.20;1.00;;;;;;5066940;28;20178;-85
2023/05/10 05:08:13;;;;;;;24.30;15.83;;;14.20;1.00;;;;;;5077087;28;20452;-83
2023/05/10 05:10:38;;;;;;;30.33;15.60;;;14.20;1.00;;;;;;5079517;28;20684;-84
2023/05/10 05:13:04;;;;;;;23.77;14.53;;;14.20;1.00;;;;;;5081014;28;20218;-84
2023/05/10 05:15:30;;;;;;;25.20;16.97;;;14.20;1.00;;;;;;5079475;28;20195;-84
2023/05/10 05:17:56;;;;;;;27.33;15.13;;;14.30;1.00;;;;;;5081787;28;20635;-85
2023/05/10 05:20:21;;;;;;;28.37;17.00;;;14.30;1.00;;;;;;5078414;28;20423;-82
2023/05/10 05:22:47;;;;;;;34.87;16.73;;;14.30;1.00;;;;;;5074302;28;20263;-84
2023/05/10 05:25:12;;;;;;;24.97;16.50;;;14.40;1.00;;;;;;5070666;28;20428;-84
2023/05/10 05:27:38;;;;;;;33.10;15.83;;;14.40;1.00;;;;;;5078903;28;20201;-83
2023/05/10 05:30:04;;;;;;;29.53;18.63;;;14.30;1.00;;;;;;5078826;28;20184;-83
2023/05/10 05:32:30;;;;;;;32.60;18.23;;;14.30;1.00;;;;;;5086632;28;20237;-83
2023/05/10 05:34:55;;;;;;;29.80;18.23;;;14.30;1.00;;;;;;5079361;28;20417;-84
2023/05/10 05:37:22;;;;;;;32.27;18.10;;;14.30;1.00;;;;;;5087755;28;20209;-85
2023/05/10 05:39:48;;;;;;;28.60;17.43;;;14.30;1.00;;;;;;5069989;28;20176;-85
2023/05/10 05:42:14;;;;;;;31.97;21.20;;;14.30;1.00;;;;;;5083869;28;20509;-83
2023/05/10 05:44:40;;;;;;;35.60;19.00;;;14.30;1.00;;;;;;5075094;28;20194;-84
2023/05/10 05:47:06;;;;;;;38.07;17.77;;;14.30;1.00;;;;;;5063554;28;20453;-84
2023/05/10 05:49:32;;;;;;;30.30;18.53;;;14.30;1.00;;;;;;5080573;28;20217;-83
2023/05/10 05:52:04;;;;;;;29.20;17.60;;;14.30;1.00;;;;;;5077864;28;20472;-84
2023/05/10 05:54:30;;;;;;;28.90;18.93;;;14.30;1.00;;;;;;5077674;28;20522;-84
2023/05/10 05:57:00;;;;;;;32.33;19.63;;;14.40;1.00;;;;;;5082284;28;20429;-85
2023/05/10 05:59:26;;;;;;;28.83;18.13;;;14.50;1.00;;;;;;5078849;28;20437;-84
2023/05/10 06:01:52;;;;;;;35.67;20.43;;;14.60;1.00;;;;;;5074725;28;20817;-84
2023/05/10 06:04:17;;;;;;;31.90;18.93;;;14.70;1.00;;;;;;5071751;28;20438;-83
2023/05/10 06:06:43;;;;;;;34.33;18.33;;;14.90;1.00;;;;;;5080982;28;20457;-84
2023/05/10 06:09:09;;;;;;;26.20;16.77;;;15.30;1.00;;;;;;5089218;28;20610;-86
2023/05/10 06:11:35;;;;;;;31.70;18.73;;;15.50;1.00;;;;;;5082567;28;20167;-84
2023/05/10 06:14:01;;;;;;;27.80;17.70;;;15.60;1.00;;;;;;5092667;28;20425;-83
2023/05/10 06:16:27;;;;;;;28.07;17.63;;;15.60;99.90;;;;;;5076096;28;20176;-84
2023/05/10 06:18:53;;;;;;;34.07;16.53;;;15.70;99.90;;;;;;5091555;28;20480;-83
2023/05/10 06:21:19;;;;;;;30.23;18.10;;;15.60;99.90;;;;;;5085209;28;20879;-85
2023/05/10 06:23:44;;;;;;;31.20;18.30;;;15.60;99.90;;;;;;5082992;28;20449;-83
2023/05/10 06:26:10;;;;;;;41.57;20.07;;;15.50;99.90;;;;;;5085808;28;20220;-84
2023/05/10 06:28:38;;;;;;;32.00;19.87;;;15.40;99.90;;;;;;5077306;28;20178;-84
2023/05/10 06:31:03;;;;;;;34.37;18.80;;;15.30;99.90;;;;;;5077239;28;20215;-84
2023/05/10 06:33:29;;;;;;;36.30;20.10;;;15.30;99.90;;;;;;5072038;28;20445;-83
2023/05/10 06:35:54;;;;;;;34.93;17.70;;;15.30;99.90;;;;;;5086735;28;20179;-84
2023/05/10 06:38:20;;;;;;;31.33;18.17;;;15.20;99.90;;;;;;5078676;28;20215;-83
2023/05/10 06:40:45;;;;;;;33.90;18.43;;;15.10;99.90;;;;;;5080348;28;20186;-83
2023/05/10 06:43:11;;;;;;;30.27;19.43;;;15.00;99.90;;;;;;5083865;28;20206;-83
2023/05/10 06:45:36;;;;;;;31.93;19.70;;;15.00;99.90;;;;;;5095466;28;20269;-84
2023/05/10 06:48:02;;;;;;;35.30;20.90;;;14.90;1.00;;;;;;5092044;28;20707;-83
2023/05/10 06:50:28;;;;;;;37.53;20.70;;;14.80;1.00;;;;;;5083598;28;20282;-83
2023/05/10 06:52:54;;;;;;;34.40;19.90;;;14.80;1.00;;;;;;5087593;28;20207;-83
2023/05/10 06:55:19;;;;;;;31.10;19.27;;;14.80;1.00;;;;;;5072213;28;20282;-85
2023/05/10 06:57:45;;;;;;;35.40;20.97;;;14.80;1.00;;;;;;5082538;28;20475;-85
2023/05/10 07:00:11;;;;;;;27.17;18.73;;;14.80;1.00;;;;;;5067404;28;20212;-84
2023/05/10 07:02:36;;;;;;;34.90;18.80;;;14.80;1.00;;;;;;5075462;28;20225;-85
2023/05/10 07:05:02;;;;;;;34.43;21.23;;;14.80;1.00;;;;;;5074709;28;20437;-83
2023/05/10 07:07:28;;;;;;;35.93;21.37;;;14.90;1.00;;;;;;5088245;28;20246;-82
2023/05/10 07:09:54;;;;;;;34.50;20.80;;;14.90;99.90;;;;;;5085860;28;20644;-84
2023/05/10 07:12:19;;;;;;;39.03;22.53;;;15.00;99.90;;;;;;5079118;28;20546;-83
2023/05/10 07:14:45;;;;;;;37.60;21.63;;;15.10;99.90;;;;;;5085321;28;20203;-84
2023/05/10 07:17:11;;;;;;;45.47;20.90;;;15.20;99.90;;;;;;5090627;28;20236;-84
2023/05/10 07:19:36;;;;;;;40.70;23.83;;;15.30;99.90;;;;;;5078930;28;20436;-84
2023/05/10 07:22:02;;;;;;;39.90;23.43;;;15.40;99.90;;;;;;5094682;28;20275;-83
2023/05/10 07:24:27;;;;;;;34.43;21.67;;;15.60;99.90;;;;;;5086416;28;20225;-83
2023/05/10 07:26:53;;;;;;;40.47;22.90;;;15.80;99.90;;;;;;5086434;28;20192;-84
2023/05/10 07:29:18;;;;;;;36.60;23.30;;;16.00;99.90;;;;;;5075658;28;20177;-84
2023/05/10 07:31:44;;;;;;;37.97;20.67;;;16.20;58.20;;;;;;5074809;28;20187;-84
2023/05/10 07:34:09;;;;;;;42.43;24.43;;;16.50;1.00;;;;;;5086811;28;20268;-84
2023/05/10 07:36:35;;;;;;;35.47;21.80;;;16.60;1.00;;;;;;5080607;28;20175;-84
2023/05/10 07:39:01;;;;;;;36.47;22.80;;;16.80;99.90;;;;;;5084115;28;20243;-83
2023/05/10 07:41:27;;;;;;;35.97;22.50;;;16.80;1.00;;;;;;5080783;28;20958;-83
2023/05/10 07:43:52;;;;;;;37.03;21.90;;;16.80;99.90;;;;;;5087932;28;20293;-85
2023/05/10 07:46:19;;;;;;;40.07;22.70;;;16.90;99.90;;;;;;5092575;28;20246;-84
2023/05/10 07:48:45;;;;;;;38.53;21.87;;;16.90;11.90;;;;;;5077360;28;20201;-85
2023/05/10 07:51:10;;;;;;;39.93;22.23;;;17.00;1.00;;;;;;5085069;28;20423;-86
2023/05/10 07:53:37;;;;;;;39.50;21.20;;;17.10;1.00;;;;;;5079720;28;20214;-84
2023/05/10 07:56:21;;;;;;;36.40;22.70;;;17.10;3.40;;;;;;5080740;28;20223;-85
2023/05/10 07:58:47;;;;;;;33.10;20.50;;;17.30;99.90;;;;;;5074262;28;20462;-83
2023/05/10 08:01:12;;;;;;;34.07;20.43;;;17.30;99.90;;;;;;5081981;28;20425;-82
2023/05/10 08:03:38;;;;;;;33.13;22.70;;;17.30;99.90;;;;;;5080586;28;20202;-83
2023/05/10 08:06:03;;;;;;;34.13;22.60;;;17.30;81.90;;;;;;5093995;28;20196;-84
2023/05/10 08:08:29;;;;;;;37.30;22.37;;;17.20;99.90;;;;;;5098086;28;20194;-85
2023/05/10 08:10:54;;;;;;;37.60;22.80;;;17.10;99.90;;;;;;5091402;28;20184;-83
2023/05/10 08:13:21;;;;;;;32.37;20.27;;;17.10;99.90;;;;;;5086417;28;20214;-83
2023/05/10 08:15:47;;;;;;;35.70;21.23;;;17.10;99.90;;;;;;5062901;28;20222;-84
2023/05/10 08:18:12;;;;;;;35.33;20.00;;;17.20;99.90;;;;;;5072980;28;20492;-82
2023/05/10 08:20:38;;;;;;;31.67;19.80;;;17.40;1.00;;;;;;5075883;28;20404;-82
2023/05/10 08:23:03;;;;;;;28.17;17.50;;;17.50;99.90;;;;;;5078777;28;20200;-83
2023/05/10 08:25:29;;;;;;;33.50;19.30;;;17.80;1.00;;;;;;5070724;28;20184;-82
2023/05/10 08:27:54;;;;;;;29.30;18.03;;;18.00;99.90;;;;;;5072693;28;20182;-84
2023/05/10 08:30:20;;;;;;;28.53;18.90;;;18.10;1.00;;;;;;5079148;28;20236;-83
2023/05/10 08:32:45;;;;;;;27.20;18.90;;;18.20;1.00;;;;;;5082949;28;20205;-84
2023/05/10 08:35:11;;;;;;;27.50;17.33;;;18.30;99.90;;;;;;5080021;28;20189;-83
2023/05/10 08:37:36;;;;;;;29.57;20.47;;;18.40;67.60;;;;;;5069303;28;20255;-83
2023/05/10 08:40:03;;;;;;;24.23;17.07;;;18.50;26.50;;;;;;5078536;28;20185;-82
2023/05/10 08:42:34;;;;;;;27.37;18.50;;;18.60;1.00;;;;;;5066362;28;20213;-83
2023/05/10 08:45:00;;;;;;;25.33;18.17;;;18.70;99.90;;;;;;5099104;28;20526;-83
2023/05/10 08:47:27;;;;;;;26.53;18.27;;;19.10;99.90;;;;;;5082601;28;20572;-83
2023/05/10 08:49:54;;;;;;;23.97;17.73;;;19.60;1.00;;;;;;5065797;28;20431;-85
2023/05/10 08:52:21;;;;;;;29.60;18.33;;;20.30;1.00;;;;;;5061041;28;20465;-85
2023/05/10 08:54:47;;;;;;;24.13;16.43;;;21.10;1.00;;;;;;5068129;28;20429;-85
2023/05/10 08:57:12;;;;;;;22.60;17.47;;;21.90;99.90;;;;;;5065538;28;20458;-83
2023/05/10 08:59:39;;;;;;;23.33;17.57;;;22.30;99.90;;;;;;5066484;28;20435;-85
2023/05/10 09:02:05;;;;;;;22.10;16.90;;;22.00;99.90;;;;;;5070001;28;20200;-82
2023/05/10 09:04:31;;;;;;;28.83;17.50;;;21.70;99.90;;;;;;5064256;28;20441;-83
2023/05/10 09:06:57;;;;;;;24.70;18.33;;;21.50;99.90;;;;;;5080689;28;20946;-83
2023/05/10 09:09:25;;;;;;;26.07;17.90;;;21.20;99.90;;;;;;5074863;28;20271;-82
2023/05/10 09:11:51;;;;;;;26.80;17.37;;;20.90;99.90;;;;;;5091702;28;20435;-83
2023/05/10 09:14:18;;;;;;;27.30;18.63;;;20.60;99.90;;;;;;5098518;28;20472;-83
2023/05/10 09:16:44;;;;;;;19.83;13.80;;;20.40;99.90;;;;;;5079756;28;20427;-85
2023/05/10 09:19:09;;;;;;;20.53;14.53;;;20.50;99.90;;;;;;5077788;28;20611;-83
2023/05/10 09:21:38;;;;;;;19.47;13.43;;;20.50;99.90;;;;;;5074791;28;20183;-83
2023/05/10 09:24:05;;;;;;;19.33;14.37;;;20.50;99.90;;;;;;5082929;28;20636;-84
2023/05/10 09:26:31;;;;;;;19.17;12.90;;;20.30;99.90;;;;;;5076396;28;20431;-84
2023/05/10 09:28:58;;;;;;;18.30;13.37;;;20.20;99.90;;;;;;5074003;28;20449;-83
2023/05/10 09:31:25;;;;;;;15.97;11.90;;;20.20;99.90;;;;;;5078669;28;20812;-85
2023/05/10 09:33:51;;;;;;;13.73;9.70;;;20.40;99.90;;;;;;5073597;28;20478;-83
2023/05/10 09:36:17;;;;;;;13.73;10.40;;;20.60;99.90;;;;;;5078061;28;20446;-84
2023/05/10 09:38:51;;;;;;;14.53;10.23;;;20.50;99.90;;;;;;5086074;28;20459;-83
2023/05/10 09:41:24;;;;;;;14.63;9.77;;;20.30;99.90;;;;;;5080056;28;20196;-83
2023/05/10 09:43:54;;;;;;;14.80;10.37;;;20.10;99.90;;;;;;5077080;28;20466;-85
2023/05/10 09:46:20;;;;;;;14.23;9.37;;;20.10;99.90;;;;;;5084990;28;20417;-84
2023/05/10 09:48:47;;;;;;;13.97;11.07;;;20.00;99.90;;;;;;5080074;28;20431;-83
2023/05/10 09:51:23;;;;;;;20.17;10.83;;;19.80;99.90;;;;;;5065644;28;20404;-84
2023/05/10 09:54:15;;;;;;;14.17;10.00;;;19.70;99.90;;;;;;5088054;28;20503;-85
2023/05/10 09:56:41;;;;;;;14.10;9.70;;;19.70;99.90;;;;;;5074987;28;20436;-83
2023/05/10 09:59:11;;;;;;;16.73;10.90;;;19.60;99.90;;;;;;5089066;28;21015;-84
2023/05/10 10:01:38;;;;;;;13.87;10.33;;;19.70;99.90;;;;;;5065614;28;21019;-83
2023/05/10 10:04:09;;;;;;;13.03;8.93;;;19.90;99.90;;;;;;5073656;28;20442;-83
2023/05/10 10:06:37;;;;;;;14.57;10.93;;;20.20;99.90;;;;;;5091525;28;20532;-83
2023/05/10 10:09:02;;;;;;;15.37;12.17;;;20.10;99.90;;;;;;5086569;28;20461;-84
2023/05/10 10:11:28;;;;;;;15.00;10.70;;;20.00;99.90;;;;;;5091937;28;20440;-83
2023/05/10 10:13:55;;;;;;;17.50;11.87;;;19.90;99.90;;;;;;5087843;28;20204;-85
2023/05/10 10:16:21;;;;;;;15.97;11.30;;;19.80;99.90;;;;;;5072110;28;20432;-84
2023/05/10 10:18:47;;;;;;;15.67;13.20;;;19.90;99.90;;;;;;5088480;28;20471;-84
2023/05/10 10:21:15;;;;;;;16.60;11.40;;;20.10;99.90;;;;;;5073772;28;20473;-83
2023/05/10 10:23:40;;;;;;;14.87;11.27;;;20.10;99.90;;;;;;5077140;28;20546;-84
2023/05/10 10:26:07;;;;;;;12.57;10.37;;;19.80;99.90;;;;;;5103534;28;20449;-84
2023/05/10 10:28:58;;;;;;;14.27;10.63;;;19.40;99.90;;;;;;5091229;28;20183;-84
2023/05/10 10:31:59;;;;;;;14.10;11.20;;;19.30;99.90;;;;;;5072316;28;20435;-83
2023/05/10 10:34:29;;;;;;;12.80;9.73;;;19.50;99.90;;;;;;5065824;28;20486;-83
2023/05/10 10:36:57;;;;;;;10.33;8.90;;;19.80;99.90;;;;;;5088498;28;21029;-84
2023/05/10 10:39:27;;;;;;;10.03;8.60;;;20.00;99.90;;;;;;5096761;28;20423;-83
2023/05/10 10:41:57;;;;;;;12.77;9.17;;;20.20;99.90;;;;;;5093915;28;20501;-84
2023/05/10 10:44:26;;;;;;;13.43;9.37;;;20.10;99.90;;;;;;5084455;28;20450;-84
2023/05/10 10:47:05;;;;;;;11.97;9.10;;;20.00;99.90;;;;;;5076848;28;20441;-84
2023/05/10 10:49:41;;;;;;;10.30;7.97;;;20.00;99.90;;;;;;5074279;28;20491;-82
2023/05/10 10:52:41;;;;;;;12.17;9.10;;;20.10;99.90;;;;;;5083920;28;20494;-83
2023/05/10 10:55:12;;;;;;;10.53;8.53;;;20.20;99.90;;;;;;5095608;28;20467;-82
2023/05/10 10:57:41;;;;;;;10.17;9.00;;;20.30;99.90;;;;;;5078484;28;20465;-82
2023/05/10 11:00:22;;;;;;;8.57;7.67;;;20.30;99.90;;;;;;5077153;28;20407;-84
2023/05/10 11:02:53;;;;;;;12.40;7.40;;;20.30;99.90;;;;;;5083488;28;20810;-85
2023/05/10 11:05:36;;;;;;;9.00;6.60;;;20.30;99.90;;;;;;5069368;28;20431;-83
2023/05/10 11:08:08;;;;;;;8.73;6.93;;;20.40;99.90;;;;;;5071116;28;20522;-84
2023/05/10 11:10:34;;;;;;;10.43;7.90;;;20.50;99.90;;;;;;5097535;28;20420;-82
2023/05/10 11:13:07;;;;;;;8.70;7.53;;;20.50;99.90;;;;;;5087820;28;20601;-82
2023/05/10 11:15:38;;;;;;;8.73;6.53;;;20.50;99.90;;;;;;5073131;28;20447;-84
2023/05/10 11:18:18;;;;;;;8.37;6.87;;;20.40;99.90;;;;;;5068525;28;20474;-83
2023/05/10 11:20:46;;;;;;;9.30;6.90;;;20.40;99.90;;;;;;5076481;28;20446;-85
2023/05/10 11:23:15;;;;;;;7.40;6.60;;;20.30;99.90;;;;;;5075345;28;20601;-83
2023/05/10 11:25:42;;;;;;;8.40;6.30;;;20.30;99.90;;;;;;5099261;28;20999;-82
2023/05/10 11:28:09;;;;;;;7.57;6.57;;;20.30;99.90;;;;;;5073034;28;20470;-81
2023/05/10 11:30:34;;;;;;;10.60;5.97;;;20.40;99.90;;;;;;5070178;28;20445;-82
2023/05/10 11:33:00;;;;;;;7.90;5.57;;;20.60;99.90;;;;;;5068688;28;20527;-82
2023/05/10 11:35:27;;;;;;;6.30;5.70;;;20.60;99.90;;;;;;5085903;28;20249;-82
2023/05/10 11:37:53;;;;;;;7.20;6.03;;;20.70;99.90;;;;;;5092434;28;20215;-82
2023/05/10 11:40:18;;;;;;;5.63;4.53;;;20.70;99.90;;;;;;5087987;28;20777;-81
2023/05/10 11:42:45;;;;;;;5.97;5.00;;;20.60;99.90;;;;;;5086958;28;20275;-82
2023/05/10 11:45:10;;;;;;;6.17;5.40;;;20.50;99.90;;;;;;5077207;28;20187;-83
2023/05/10 11:47:36;;;;;;;5.90;5.10;;;20.40;99.90;;;;;;5072112;28;20477;-81
2023/05/10 11:50:02;;;;;;;6.60;5.70;;;20.60;99.90;;;;;;5081264;28;20269;-81
2023/05/10 11:52:28;;;;;;;5.67;5.07;;;21.20;99.90;;;;;;5076445;28;20786;-83
2023/05/10 11:54:54;;;;;;;6.00;5.37;;;22.10;99.90;;;;;;5085882;28;20430;-85
2023/05/10 11:57:25;;;;;;;7.57;6.03;;;23.30;99.90;;;;;;5089623;28;20546;-83
2023/05/10 11:59:55;;;;;;;6.60;5.43;;;24.30;99.90;;;;;;5095901;28;20903;-83
2023/05/10 12:02:21;;;;;;;6.13;5.53;;;24.90;99.90;;;;;;5077944;28;21079;-82
2023/05/10 12:04:47;;;;;;;8.10;5.50;;;24.90;99.90;;;;;;5087379;28;20529;-82
2023/05/10 12:07:13;;;;;;;6.20;5.20;;;24.80;99.90;;;;;;5084232;28;20184;-83
2023/05/10 12:09:44;;;;;;;6.30;5.67;;;24.50;99.90;;;;;;5074456;28;20266;-80
2023/05/10 12:12:09;;;;;;;5.90;5.30;;;24.20;99.90;;;;;;5076679;28;20197;-81
2023/05/10 12:14:35;;;;;;;6.40;5.73;;;24.20;99.90;;;;;;5062255;28;20466;-81
2023/05/10 12:17:01;;;;;;;5.40;4.90;;;24.50;99.90;;;;;;5066793;28;20664;-80
2023/05/10 12:19:26;;;;;;;6.03;4.63;;;24.80;99.90;;;;;;5080039;28;20183;-80
2023/05/10 12:21:52;;;;;;;6.73;5.60;;;25.40;99.90;;;;;;5087679;28;20679;-80
2023/05/10 12:24:19;;;;;;;5.50;4.87;;;25.50;99.90;;;;;;5075532;28;20619;-78
2023/05/10 12:26:45;;;;;;;5.67;5.07;;;25.30;99.90;;;;;;5069436;28;20637;-79
2023/05/10 12:29:20;;;;;;;7.93;5.07;;;24.80;99.90;;;;;;5078063;28;20434;-79
2023/05/10 12:31:51;;;;;;;6.20;4.60;;;24.10;99.90;;;;;;5074201;28;20417;-81
2023/05/10 12:34:34;;;;;;;7.00;5.03;;;23.60;99.90;;;;;;5081287;28;20441;-80
2023/05/10 12:37:00;;;;;;;6.57;5.20;;;23.50;99.90;;;;;;5075584;28;20397;-81
2023/05/10 12:39:25;;;;;;;6.23;4.80;;;23.60;99.90;;;;;;5073126;28;20438;-81